createdAt,value
2023-04-14T00:00:49.704Z,28.40
2023-04-14T00:03:18.167Z,28.50
2023-04-14T00:05:46.384Z,28.40
2023-04-14T00:08:14.269Z,28.30
2023-04-14T00:10:42.181Z,28.20
2023-04-14T00:13:11.395Z,28.10
2023-04-14T00:15:41.682Z,28.20
2023-04-14T00:18:10.411Z,28.10
2023-04-14T00:20:38.311Z,28.10
2023-04-14T00:23:06.183Z,28.00
2023-04-14T00:25:34.091Z,28.20
2023-04-14T00:28:01.967Z,28.10
2023-04-14T00:30:31.477Z,28.10
2023-04-14T00:33:00.084Z,28.10
2023-04-14T00:35:28.122Z,28.00
2023-04-14T00:37:56.783Z,28.00
2023-04-14T00:40:25.037Z,28.00
2023-04-14T00:42:53.459Z,28.00
2023-04-14T00:45:21.574Z,28.60
2023-04-14T00:47:51.139Z,28.00
2023-04-14T00:50:20.896Z,28.00
2023-04-14T00:52:51.103Z,27.90
2023-04-14T00:55:21.081Z,28.00
2023-04-14T00:57:50.610Z,28.10
2023-04-14T01:00:19.155Z,27.90
2023-04-14T01:02:47.317Z,27.90
2023-04-14T01:05:17.127Z,27.90
2023-04-14T01:07:46.069Z,27.80
2023-04-14T01:10:14.113Z,27.80
2023-04-14T01:12:56.602Z,27.80
2023-04-14T01:15:30.400Z,27.90
2023-04-14T01:18:06.077Z,27.80
2023-04-14T01:20:42.655Z,27.80
2023-04-14T01:23:14.400Z,27.80
2023-04-14T01:26:16.580Z,27.70
2023-04-14T01:29:12.518Z,27.80
2023-04-14T01:31:48.169Z,27.80
2023-04-14T01:34:21.775Z,27.80
2023-04-14T01:37:04.979Z,27.80
2023-04-14T01:39:37.373Z,27.80
2023-04-14T01:42:08.438Z,27.80
2023-04-14T01:44:39.584Z,27.80
2023-04-14T01:47:10.430Z,27.80
2023-04-14T01:49:42.079Z,27.80
2023-04-14T01:52:14.222Z,27.70
2023-04-14T01:54:44.343Z,27.70
2023-04-14T01:57:15.107Z,27.60
2023-04-14T01:59:44.883Z,27.60
2023-04-14T02:02:16.344Z,27.60
2023-04-14T02:04:45.713Z,27.60
2023-04-14T02:07:14.298Z,27.70
2023-04-14T02:09:44.132Z,27.60
2023-04-14T02:12:12.959Z,27.60
2023-04-14T02:14:43.017Z,27.60
2023-04-14T02:17:14.529Z,27.60
2023-04-14T02:19:48.374Z,27.60
2023-04-14T02:22:17.416Z,27.60
2023-04-14T02:24:47.711Z,27.50
2023-04-14T02:27:32.546Z,27.50
2023-04-14T02:30:11.054Z,27.40
2023-04-14T02:32:44.685Z,27.40
2023-04-14T02:35:21.677Z,27.40
2023-04-14T02:37:55.944Z,27.40
2023-04-14T02:40:33.349Z,27.40
2023-04-14T02:43:05.419Z,27.40
2023-04-14T02:45:35.474Z,27.50
2023-04-14T02:48:10.854Z,27.50
2023-04-14T02:50:43.650Z,27.50
2023-04-14T02:53:19.478Z,27.40
2023-04-14T02:55:50.339Z,27.50
2023-04-14T02:58:22.420Z,27.40
2023-04-14T03:00:52.085Z,27.40
2023-04-14T03:03:22.216Z,27.40
2023-04-14T03:05:50.641Z,27.50
2023-04-14T03:08:19.988Z,27.50
2023-04-14T03:10:52.641Z,27.50
2023-04-14T03:13:29.287Z,27.50
2023-04-14T03:15:59.343Z,27.40
2023-04-14T03:18:31.114Z,27.40
2023-04-14T03:21:02.370Z,27.40
2023-04-14T03:23:33.048Z,27.30
2023-04-14T03:26:06.313Z,27.40
2023-04-14T03:28:38.196Z,27.40
2023-04-14T03:31:09.805Z,27.30
2023-04-14T03:33:56.352Z,27.40
2023-04-14T03:36:30.460Z,27.30
2023-04-14T03:39:01.659Z,27.30
2023-04-14T03:41:36.079Z,27.30
2023-04-14T03:44:06.522Z,27.30
2023-04-14T03:46:34.636Z,27.20
2023-04-14T03:49:10.984Z,27.30
2023-04-14T03:51:39.973Z,27.30
2023-04-14T03:54:10.864Z,27.30
2023-04-14T03:56:41.359Z,27.30
2023-04-14T03:59:13.185Z,27.30
2023-04-14T04:01:43.800Z,27.30
2023-04-14T04:04:14.347Z,27.30
2023-04-14T04:06:43.278Z,27.40
2023-04-14T04:09:15.768Z,27.30
2023-04-14T04:11:46.331Z,27.30
2023-04-14T04:14:16.855Z,27.20
2023-04-14T04:16:49.549Z,27.30
2023-04-14T04:19:21.768Z,27.30
2023-04-14T04:21:52.477Z,27.40
2023-04-14T04:24:23.114Z,27.20
2023-04-14T04:26:52.931Z,27.20
2023-04-14T04:29:22.296Z,27.30
2023-04-14T04:31:50.357Z,27.30
2023-04-14T04:34:23.247Z,27.20
2023-04-14T04:36:54.277Z,27.20
2023-04-14T04:39:22.449Z,27.20
2023-04-14T04:41:51.906Z,27.30
2023-04-14T04:44:20.435Z,27.20
2023-04-14T04:46:54.153Z,27.20
2023-04-14T04:49:27.360Z,27.20
2023-04-14T04:51:57.458Z,27.20
2023-04-14T04:54:27.065Z,27.20
2023-04-14T04:56:54.979Z,27.20
2023-04-14T04:59:22.915Z,27.20
2023-04-14T05:01:51.052Z,27.20
2023-04-14T05:04:21.404Z,27.20
2023-04-14T05:06:50.734Z,27.20
2023-04-14T05:09:18.606Z,27.10
2023-04-14T05:11:46.546Z,27.20
2023-04-14T05:14:14.606Z,27.10
2023-04-14T05:16:44.070Z,27.20
2023-04-14T05:19:11.954Z,27.10
2023-04-14T05:21:40.096Z,27.10
2023-04-14T05:24:10.888Z,27.10
2023-04-14T05:26:57.529Z,27.10
2023-04-14T05:29:26.890Z,27.10
2023-04-14T05:31:54.792Z,27.10
2023-04-14T05:34:22.718Z,27.10
2023-04-14T05:36:51.057Z,27.20
2023-04-14T05:39:20.404Z,27.10
2023-04-14T05:41:48.372Z,27.10
2023-04-14T05:44:16.470Z,27.20
2023-04-14T05:46:44.403Z,27.20
2023-04-14T05:49:12.335Z,27.20
2023-04-14T05:51:40.722Z,27.10
2023-04-14T05:54:08.740Z,27.10
2023-04-14T05:56:40.235Z,27.20
2023-04-14T05:59:08.691Z,27.10
2023-04-14T06:01:36.713Z,27.10
2023-04-14T06:04:05.086Z,27.20
2023-04-14T06:06:33.502Z,27.10
2023-04-14T06:09:01.694Z,27.00
2023-04-14T06:11:29.849Z,27.10
2023-04-14T06:14:01.929Z,27.10
2023-04-14T06:16:30.112Z,27.10
2023-04-14T06:18:58.409Z,27.10
2023-04-14T06:21:28.294Z,27.10
2023-04-14T06:23:56.187Z,27.20
2023-04-14T06:26:24.057Z,27.10
2023-04-14T06:28:52.066Z,27.10
2023-04-14T06:31:21.704Z,27.20
2023-04-14T06:33:49.659Z,27.20
2023-04-14T06:36:18.242Z,27.20
2023-04-14T06:38:46.185Z,27.30
2023-04-14T06:41:14.141Z,27.30
2023-04-14T06:43:42.733Z,27.30
2023-04-14T06:46:10.837Z,27.30
2023-04-14T06:48:40.227Z,27.20
2023-04-14T06:51:10.559Z,27.30
2023-04-14T06:53:38.562Z,27.30
2023-04-14T06:56:08.229Z,27.20
2023-04-14T06:58:36.544Z,27.30
2023-04-14T07:01:04.998Z,27.30
2023-04-14T07:03:34.445Z,27.20
2023-04-14T07:06:12.067Z,27.30
2023-04-14T07:08:40.633Z,27.20
2023-04-14T07:11:10.938Z,27.30
2023-04-14T07:13:39.895Z,27.20
2023-04-14T07:16:08.689Z,27.20
2023-04-14T07:18:38.049Z,27.20
2023-04-14T07:21:06.265Z,27.20
2023-04-14T07:23:35.582Z,27.30
2023-04-14T07:26:03.516Z,27.30
2023-04-14T07:28:32.411Z,27.20
2023-04-14T07:31:01.067Z,27.20
2023-04-14T07:33:31.138Z,27.20
2023-04-14T07:36:03.582Z,27.20
2023-04-14T07:38:32.714Z,27.30
2023-04-14T07:41:05.486Z,27.30
2023-04-14T07:43:35.458Z,27.30
2023-04-14T07:46:05.259Z,27.30
2023-04-14T07:48:34.543Z,27.30
2023-04-14T07:51:02.924Z,27.30
2023-04-14T07:53:31.169Z,27.30
2023-04-14T07:55:59.468Z,27.30
2023-04-14T07:58:30.291Z,27.20
2023-04-14T08:00:58.890Z,27.20
2023-04-14T08:03:27.128Z,27.20
2023-04-14T08:05:55.321Z,27.60
2023-04-14T08:08:23.519Z,27.20
2023-04-14T08:10:51.511Z,27.30
2023-04-14T08:13:19.448Z,27.30
2023-04-14T08:15:48.742Z,27.30
2023-04-14T08:18:17.728Z,27.20
2023-04-14T08:20:45.806Z,27.20
2023-04-14T08:23:13.763Z,27.30
2023-04-14T08:25:43.192Z,27.30
2023-04-14T08:28:11.311Z,27.20
2023-04-14T08:30:39.371Z,27.20
2023-04-14T08:33:08.657Z,27.30
2023-04-14T08:35:42.170Z,27.30
2023-04-14T08:38:11.558Z,27.30
2023-04-14T08:40:40.987Z,27.30
2023-04-14T08:43:09.237Z,27.30
2023-04-14T08:45:37.890Z,27.30
2023-04-14T08:48:08.175Z,27.40
2023-04-14T08:50:38.626Z,27.40
2023-04-14T08:53:09.688Z,27.30
2023-04-14T08:55:41.127Z,27.30
2023-04-14T08:58:11.259Z,27.30
2023-04-14T09:00:39.874Z,27.30
2023-04-14T09:03:11.113Z,27.30
2023-04-14T09:05:40.659Z,27.30
2023-04-14T09:08:08.870Z,27.20
2023-04-14T09:10:37.171Z,27.30
2023-04-14T09:13:06.572Z,27.30
2023-04-14T09:15:34.590Z,27.30
2023-04-14T09:18:02.905Z,27.30
2023-04-14T09:20:37.560Z,27.40
2023-04-14T09:23:09.834Z,27.30
2023-04-14T09:25:39.713Z,27.40
2023-04-14T09:28:07.851Z,27.30
2023-04-14T09:30:36.250Z,27.30
2023-04-14T09:33:06.629Z,27.30
2023-04-14T09:35:47.416Z,27.30
2023-04-14T09:38:16.090Z,27.20
2023-04-14T09:40:44.806Z,27.20
2023-04-14T09:43:27.085Z,27.30
2023-04-14T09:45:56.333Z,27.20
2023-04-14T09:48:24.832Z,27.20
2023-04-14T09:51:03.238Z,27.30
2023-04-14T09:53:33.389Z,27.30
2023-04-14T09:56:03.618Z,27.40
2023-04-14T09:58:32.576Z,27.30
2023-04-14T10:01:00.781Z,27.30
2023-04-14T10:03:36.536Z,27.30
2023-04-14T10:06:07.796Z,27.30
2023-04-14T10:08:37.705Z,27.30
2023-04-14T10:11:16.474Z,27.30
2023-04-14T10:13:44.843Z,27.40
2023-04-14T10:16:12.982Z,27.40
2023-04-14T10:18:41.981Z,27.40
2023-04-14T10:21:11.719Z,27.40
2023-04-14T10:23:41.435Z,27.30
2023-04-14T10:26:11.845Z,27.30
2023-04-14T10:28:42.976Z,27.40
2023-04-14T10:31:16.098Z,27.50
2023-04-14T10:33:44.298Z,27.40
2023-04-14T10:36:13.882Z,27.30
2023-04-14T10:38:43.524Z,27.40
2023-04-14T10:41:12.184Z,27.40
2023-04-14T10:43:40.672Z,27.30
2023-04-14T10:46:11.105Z,27.30
2023-04-14T10:48:41.227Z,27.40
2023-04-14T10:51:10.646Z,27.30
2023-04-14T10:53:45.792Z,27.40
2023-04-14T10:56:16.124Z,27.40
2023-04-14T10:58:55.483Z,27.40
2023-04-14T11:01:29.955Z,27.40
2023-04-14T11:03:58.782Z,27.40
2023-04-14T11:06:59.937Z,27.40
2023-04-14T11:09:34.331Z,27.40
2023-04-14T11:12:07.705Z,27.40
2023-04-14T11:14:37.123Z,27.40
2023-04-14T11:17:06.138Z,27.40
2023-04-14T11:19:34.314Z,27.40
2023-04-14T11:22:02.313Z,27.40
2023-04-14T11:24:32.686Z,27.40
2023-04-14T11:27:00.612Z,27.40
2023-04-14T11:29:28.551Z,27.40
2023-04-14T11:32:04.158Z,27.40
2023-04-14T11:34:32.777Z,27.40
2023-04-14T11:37:03.081Z,27.40
2023-04-14T11:39:32.804Z,28.00
2023-04-14T11:42:01.145Z,28.00
2023-04-14T11:44:29.409Z,27.40
2023-04-14T11:46:57.429Z,27.40
2023-04-14T11:49:36.052Z,27.40
2023-04-14T11:52:08.515Z,27.40
2023-04-14T11:54:39.202Z,27.50
2023-04-14T11:57:11.389Z,27.40
2023-04-14T11:59:43.492Z,27.50
2023-04-14T12:02:19.614Z,27.50
2023-04-14T12:04:50.338Z,27.40
2023-04-14T12:07:21.560Z,27.40
2023-04-14T12:09:52.233Z,27.30
2023-04-14T12:12:21.432Z,27.40
2023-04-14T12:14:50.549Z,27.40
2023-04-14T12:17:20.131Z,27.40
2023-04-14T12:19:48.874Z,27.40
2023-04-14T12:22:24.849Z,27.40
2023-04-14T12:24:54.523Z,27.30
2023-04-14T12:27:24.464Z,27.40
2023-04-14T12:29:53.704Z,27.40
2023-04-14T12:32:22.786Z,27.40
2023-04-14T12:34:57.508Z,28.00
2023-04-14T12:37:27.293Z,27.40
2023-04-14T12:39:59.481Z,27.40
2023-04-14T12:42:28.318Z,27.40
2023-04-14T12:44:57.733Z,28.00
2023-04-14T12:47:33.133Z,27.40
2023-04-14T12:50:03.105Z,27.40
2023-04-14T12:52:35.882Z,27.50
2023-04-14T12:55:06.702Z,27.40
2023-04-14T12:57:35.614Z,27.40
2023-04-14T13:00:05.519Z,27.40
2023-04-14T13:02:35.426Z,27.40
2023-04-14T13:05:04.019Z,27.30
2023-04-14T13:07:32.955Z,27.40
2023-04-14T13:10:01.266Z,28.00
2023-04-14T13:12:30.620Z,27.40
2023-04-14T13:14:58.560Z,27.40
2023-04-14T13:17:26.812Z,27.40
2023-04-14T13:19:57.091Z,27.20
2023-04-14T13:22:25.719Z,27.30
2023-04-14T13:24:53.820Z,27.40
2023-04-14T13:27:21.752Z,27.30
2023-04-14T13:29:51.186Z,27.30
2023-04-14T13:32:20.284Z,27.30
2023-04-14T13:34:49.167Z,27.30
2023-04-14T13:37:17.941Z,27.30
2023-04-14T13:39:46.148Z,27.40
2023-04-14T13:42:15.044Z,27.20
2023-04-14T13:44:43.013Z,27.30
2023-04-14T13:47:12.376Z,27.20
2023-04-14T13:49:40.320Z,27.20
2023-04-14T13:52:09.464Z,27.20
2023-04-14T13:54:39.087Z,27.20
2023-04-14T13:57:08.027Z,27.20
2023-04-14T13:59:36.100Z,27.20
2023-04-14T14:02:04.249Z,27.20
2023-04-14T14:04:37.655Z,27.20
2023-04-14T14:07:05.904Z,27.20
2023-04-14T14:09:33.824Z,27.20
2023-04-14T14:12:02.293Z,27.20
2023-04-14T14:14:30.237Z,27.20
2023-04-14T14:16:58.436Z,27.20
2023-04-14T14:19:26.478Z,27.20
2023-04-14T14:21:55.834Z,27.30
2023-04-14T14:24:23.733Z,27.10
2023-04-14T14:26:51.713Z,27.20
2023-04-14T14:29:19.673Z,27.10
2023-04-14T14:31:50.096Z,27.20
2023-04-14T14:34:22.299Z,27.00
2023-04-14T14:36:50.387Z,27.10
2023-04-14T14:39:19.826Z,27.20
2023-04-14T14:41:48.810Z,27.10
2023-04-14T14:44:17.299Z,27.10
2023-04-14T14:46:46.046Z,27.10
2023-04-14T14:49:14.233Z,27.10
2023-04-14T14:51:42.222Z,27.10
2023-04-14T14:54:10.742Z,27.00
2023-04-14T14:56:40.145Z,27.10
2023-04-14T14:59:09.393Z,27.10
2023-04-14T15:01:37.525Z,27.10
2023-04-14T15:04:06.335Z,27.10
2023-04-14T15:06:35.877Z,27.10
2023-04-14T15:09:05.281Z,27.20
2023-04-14T15:11:33.354Z,27.10
2023-04-14T15:14:03.289Z,27.10
2023-04-14T15:16:31.636Z,27.80
2023-04-14T15:19:00.739Z,27.10
2023-04-14T15:21:28.915Z,27.20
2023-04-14T15:23:56.893Z,27.10
2023-04-14T15:26:24.875Z,27.10
2023-04-14T15:28:52.798Z,27.20
2023-04-14T15:31:22.157Z,27.10
2023-04-14T15:33:50.261Z,27.20
2023-04-14T15:36:18.257Z,27.20
2023-04-14T15:38:46.965Z,27.20
2023-04-14T15:41:14.909Z,27.20
2023-04-14T15:43:42.963Z,27.10
2023-04-14T15:46:11.299Z,27.10
2023-04-14T15:48:42.296Z,27.10
2023-04-14T15:51:10.282Z,27.10
2023-04-14T15:53:38.303Z,27.10
2023-04-14T15:56:06.667Z,27.10
2023-04-14T15:58:36.883Z,27.10
2023-04-14T16:01:08.379Z,27.10
2023-04-14T16:03:37.862Z,27.00
2023-04-14T16:06:08.090Z,27.20
2023-04-14T16:08:36.267Z,27.10
2023-04-14T16:11:04.861Z,27.10
2023-04-14T16:13:32.816Z,27.10
2023-04-14T16:16:01.183Z,27.10
2023-04-14T16:18:29.112Z,27.10
2023-04-14T16:20:57.249Z,27.10
2023-04-14T16:23:28.248Z,27.10
2023-04-14T16:25:56.873Z,27.10
2023-04-14T16:28:25.779Z,27.10
2023-04-14T16:30:55.122Z,27.00
2023-04-14T16:33:23.290Z,27.10
2023-04-14T16:35:51.229Z,27.10
2023-04-14T16:38:19.947Z,27.10
2023-04-14T16:40:57.356Z,27.00
2023-04-14T16:43:27.987Z,27.10
2023-04-14T16:46:01.797Z,27.10
2023-04-14T16:48:30.609Z,27.10
2023-04-14T16:50:58.614Z,27.10
2023-04-14T16:53:26.557Z,27.10
2023-04-14T16:55:55.849Z,27.10
2023-04-14T16:58:23.820Z,27.10
2023-04-14T17:00:51.766Z,27.10
2023-04-14T17:03:21.095Z,27.00
2023-04-14T17:05:49.204Z,27.10
2023-04-14T17:08:17.503Z,27.10
2023-04-14T17:10:45.460Z,27.00
2023-04-14T17:13:14.925Z,27.00
2023-04-14T17:15:44.282Z,27.00
2023-04-14T17:18:13.315Z,27.00
2023-04-14T17:20:41.924Z,27.00
2023-04-14T17:23:10.427Z,27.10
2023-04-14T17:25:39.010Z,26.90
2023-04-14T17:28:07.450Z,27.00
2023-04-14T17:30:38.550Z,26.90
2023-04-14T17:33:08.625Z,27.00
2023-04-14T17:35:37.451Z,26.90
2023-04-14T17:38:05.404Z,26.90
2023-04-14T17:40:33.668Z,26.90
2023-04-14T17:43:01.793Z,27.00
2023-04-14T17:45:29.872Z,26.90
2023-04-14T17:47:59.214Z,27.00
2023-04-14T17:50:27.383Z,27.00
2023-04-14T17:52:55.539Z,26.90
2023-04-14T17:55:23.505Z,27.00
2023-04-14T17:57:51.607Z,27.00
2023-04-14T18:00:20.139Z,27.00
2023-04-14T18:02:48.102Z,27.00
2023-04-14T18:05:17.533Z,27.00
2023-04-14T18:07:45.569Z,27.00
2023-04-14T18:10:13.666Z,27.00
2023-04-14T18:12:41.741Z,26.90
2023-04-14T18:15:15.105Z,26.90
2023-04-14T18:17:43.366Z,26.90
2023-04-14T18:20:12.085Z,26.90
2023-04-14T18:22:41.491Z,26.90
2023-04-14T18:25:09.994Z,26.90
2023-04-14T18:30:10.601Z,26.90
2023-04-14T18:32:38.598Z,26.90
2023-04-14T18:35:07.240Z,26.90
2023-04-14T18:37:35.216Z,27.00
2023-04-14T18:40:05.610Z,27.00
2023-04-14T18:42:35.811Z,27.00
2023-04-14T18:45:04.353Z,27.00
2023-04-14T18:47:33.148Z,26.90
2023-04-14T18:50:01.302Z,27.00
2023-04-14T18:52:29.307Z,27.00
2023-04-14T18:54:57.566Z,27.00
2023-04-14T18:57:28.941Z,27.00
2023-04-14T18:59:57.031Z,27.00
2023-04-14T19:02:25.200Z,27.00
2023-04-14T19:04:53.436Z,27.00
2023-04-14T19:07:21.473Z,26.90
2023-04-14T19:09:49.693Z,26.90
2023-04-14T19:12:27.732Z,27.00
2023-04-14T19:14:58.048Z,26.90
2023-04-14T19:17:26.040Z,27.00
2023-04-14T19:19:53.957Z,26.90
2023-04-14T19:22:22.371Z,26.90
2023-04-14T19:24:51.206Z,26.90
2023-04-14T19:27:19.215Z,26.90
2023-04-14T19:29:47.348Z,26.90
2023-04-14T19:32:16.930Z,27.00
2023-04-14T19:34:44.937Z,26.90
2023-04-14T19:37:14.845Z,26.90
2023-04-14T19:39:42.781Z,26.90
2023-04-14T19:42:10.759Z,27.00
2023-04-14T19:44:39.206Z,26.90
2023-04-14T19:47:07.232Z,26.90
2023-04-14T19:49:36.645Z,26.90
2023-04-14T19:52:04.784Z,26.90
2023-04-14T19:54:32.748Z,26.80
2023-04-14T19:57:00.713Z,26.90
2023-04-14T19:59:31.350Z,26.90
2023-04-14T20:02:00.925Z,26.90
2023-04-14T20:04:29.047Z,26.80
2023-04-14T20:06:58.440Z,26.90
2023-04-14T20:09:26.550Z,26.90
2023-04-14T20:11:55.692Z,26.80
2023-04-14T20:14:23.702Z,26.80
2023-04-14T20:16:51.740Z,26.80
2023-04-14T20:19:20.856Z,26.80
2023-04-14T20:21:49.065Z,26.70
2023-04-14T20:24:18.660Z,26.80
2023-04-14T20:26:46.790Z,26.70
2023-04-14T20:29:17.344Z,26.80
2023-04-14T20:31:46.387Z,26.80
2023-04-14T20:34:15.398Z,26.80
2023-04-14T20:36:44.870Z,26.70
2023-04-14T20:39:13.310Z,26.80
2023-04-14T20:41:42.582Z,26.80
2023-04-14T20:44:10.834Z,26.90
2023-04-14T20:46:38.793Z,26.70
2023-04-14T20:49:07.389Z,26.70
2023-04-14T20:51:35.495Z,26.80
2023-04-14T20:54:04.089Z,26.70
2023-04-14T20:56:33.850Z,26.70
2023-04-14T20:59:03.599Z,26.70
2023-04-14T21:01:31.717Z,26.70
2023-04-14T21:03:59.864Z,26.80
2023-04-14T21:06:27.853Z,26.80
2023-04-14T21:08:55.792Z,26.70
2023-04-14T21:11:23.780Z,26.70
2023-04-14T21:15:27.843Z,26.70
2023-04-14T21:16:43.396Z,26.60
2023-04-14T21:19:13.323Z,26.60
2023-04-14T21:21:41.800Z,26.60
2023-04-14T21:24:09.807Z,26.70
2023-04-14T21:26:37.766Z,26.80
2023-04-14T21:29:05.656Z,26.70
2023-04-14T21:31:33.705Z,26.70
2023-04-14T21:34:04.424Z,26.70
2023-04-14T21:36:32.357Z,26.70
2023-04-14T21:39:00.708Z,26.60
2023-04-14T21:41:28.941Z,26.70
2023-04-14T21:43:57.243Z,26.60
2023-04-14T21:46:25.870Z,26.60
2023-04-14T21:48:53.940Z,26.60
2023-04-14T21:51:23.325Z,26.60
2023-04-14T21:53:51.348Z,26.60
2023-04-14T21:56:21.783Z,26.60
2023-04-14T21:58:49.742Z,26.60
2023-04-14T22:01:17.716Z,26.60
2023-04-14T22:03:45.924Z,26.60
2023-04-14T22:06:14.461Z,26.60
2023-04-14T22:08:46.007Z,26.60
2023-04-14T22:11:14.490Z,26.60
2023-04-14T22:13:42.979Z,26.60
2023-04-14T22:16:11.206Z,26.60
2023-04-14T22:18:39.456Z,26.60
2023-04-14T22:21:09.618Z,26.50
2023-04-14T22:23:38.545Z,26.50
2023-04-14T22:26:08.102Z,26.50
2023-04-14T22:28:36.440Z,26.50
2023-04-14T22:31:04.545Z,26.60
2023-04-14T22:33:34.692Z,26.60
2023-04-14T22:36:05.489Z,27.10
2023-04-14T22:38:34.036Z,26.50
2023-04-14T22:41:02.661Z,26.60
2023-04-14T22:43:32.062Z,26.50
2023-04-14T22:46:00.103Z,26.60
2023-04-14T22:48:30.968Z,26.50
2023-04-14T22:50:58.981Z,26.50
2023-04-14T22:53:27.122Z,26.50
2023-04-14T22:55:58.233Z,26.50
2023-04-14T22:58:27.047Z,26.50
2023-04-14T23:00:56.390Z,26.50
2023-04-14T23:03:24.496Z,26.50
2023-04-14T23:05:55.040Z,26.50
2023-04-14T23:08:22.994Z,26.50
2023-04-14T23:10:50.944Z,26.40
2023-04-14T23:13:18.885Z,26.50
2023-04-14T23:15:47.095Z,26.50
2023-04-14T23:18:22.527Z,26.50
2023-04-14T23:20:52.813Z,26.50
2023-04-14T23:23:21.069Z,26.40
2023-04-14T23:25:49.134Z,27.10
2023-04-14T23:28:17.103Z,26.50
2023-04-14T23:30:45.135Z,26.50
2023-04-14T23:33:14.330Z,26.50
2023-04-14T23:35:43.787Z,26.50
2023-04-14T23:38:11.749Z,26.50
2023-04-14T23:40:39.964Z,26.50
2023-04-14T23:43:08.188Z,26.50
2023-04-14T23:45:37.794Z,26.50
2023-04-14T23:48:06.571Z,26.50
2023-04-14T23:51:00.292Z,26.50
2023-04-14T23:53:23.939Z,26.50
2023-04-14T23:55:52.278Z,26.50
2023-04-14T23:58:26.467Z,26.50
